Terminal Aerodrome Forecast
Issued by NWS

Home | Current Version | Previous Version | Text Only | Print | Product List | Glossary Off
Versions: 1 2 3 4 5 6 7 8 9 10 11 12 13 14 15 16 17 18 19 20 21

000
FTUS41 KGYX 231720
TAFRKD
TAF
KRKD 231720Z 2318/2418 15005KT P6SM SCT250
     FM240100 00000KT P6SM FEW090
     FM240900 00000KT 5SM BR BKN003
     FM241300 17006KT P6SM FEW250
      AMD LTD TO CLD VIS AND WIND=

USA.gov is the U.S. government's official web portal to all federal, state and local government web resources and services.